Time;durP1;ratioP1;P1;durP2;ratioP2;P2;SDS_P1;SDS_P2;PMS_P1;PMS_P2;Temp;Humidity;BMP_temperature;BMP_pressure;BME280_temperature;BME280_humidity;BME280_pressure;Samples;Min_cycle;Max_cycle;Signal;HPM_P1;HPM_P2
2023/08/22 00:01:57;;;;;;;13.27;11.88;;;28.60;78.50;;;;;;6123529;28;83951;-60
2023/08/22 00:04:58;;;;;;;15.07;11.50;;;28.50;78.30;;;;;;6122593;28;83641;-59
2023/08/22 00:07:58;;;;;;;15.63;11.45;;;28.50;78.40;;;;;;6092221;28;88063;-60
2023/08/22 00:10:59;;;;;;;13.02;11.63;;;28.50;78.20;;;;;;6115443;28;83384;-60
2023/08/22 00:13:59;;;;;;;14.38;12.07;;;28.50;78.50;;;;;;6116726;28;86038;-60
2023/08/22 00:17:00;;;;;;;16.80;11.25;;;28.50;78.20;;;;;;6108326;28;83302;-59
2023/08/22 00:20:00;;;;;;;14.60;11.60;;;28.40;78.00;;;;;;6120312;28;86046;-58
2023/08/22 00:23:01;;;;;;;13.52;11.10;;;28.40;77.90;;;;;;6100960;28;83460;-58
2023/08/22 00:26:01;;;;;;;13.88;11.10;;;28.40;78.10;;;;;;6112380;28;83068;-59
2023/08/22 00:29:02;;;;;;;16.23;11.63;;;28.40;77.90;;;;;;6131008;28;83034;-59
2023/08/22 00:32:03;;;;;;;13.73;11.45;;;28.20;78.30;;;;;;6134129;28;83641;-60
2023/08/22 00:35:04;;;;;;;15.30;11.07;;;28.20;78.30;;;;;;6149413;28;85786;-59
2023/08/22 00:38:04;;;;;;;14.60;11.05;;;28.30;78.40;;;;;;6136101;28;83751;-58
2023/08/22 00:41:05;;;;;;;13.35;10.77;;;28.40;78.30;;;;;;6120407;28;82841;-59
2023/08/22 00:44:05;;;;;;;15.95;12.35;;;28.40;77.80;;;;;;6112172;28;83233;-60
2023/08/22 00:47:06;;;;;;;13.32;10.68;;;28.30;77.30;;;;;;6102189;28;82977;-60
2023/08/22 00:50:07;;;;;;;13.43;10.80;;;28.30;77.10;;;;;;6118716;28;84013;-59
2023/08/22 00:53:07;;;;;;;16.08;10.32;;;28.30;77.10;;;;;;6100915;28;82875;-59
2023/08/22 00:56:08;;;;;;;13.30;10.45;;;28.30;77.30;;;;;;6113013;28;83222;-59
2023/08/22 00:59:08;;;;;;;14.27;10.93;;;28.40;77.40;;;;;;6099652;28;84982;-60
2023/08/22 01:02:09;;;;;;;12.00;10.45;;;28.40;77.20;;;;;;6100390;28;83012;-59
2023/08/22 01:05:09;;;;;;;12.48;10.60;;;28.40;77.10;;;;;;6104041;28;84600;-59
2023/08/22 01:08:10;;;;;;;13.73;10.73;;;28.40;76.90;;;;;;6100878;28;83266;-61
2023/08/22 01:11:10;;;;;;;13.38;10.00;;;28.40;76.80;;;;;;6115699;28;87086;-59
2023/08/22 01:14:11;;;;;;;14.02;10.05;;;28.40;76.40;;;;;;6113951;28;82944;-59
2023/08/22 01:17:11;;;;;;;12.52;11.23;;;28.40;76.60;;;;;;6109554;28;84537;-59
2023/08/22 01:20:12;;;;;;;16.30;11.40;;;28.30;76.30;;;;;;6130131;28;84648;-58
2023/08/22 01:23:12;;;;;;;13.57;11.57;;;28.30;76.30;;;;;;6134079;28;86345;-59
2023/08/22 01:26:14;;;;;;;14.63;10.60;;;28.30;76.20;;;;;;6138497;28;84064;-59
2023/08/22 01:29:15;;;;;;;14.98;10.90;;;28.30;76.20;;;;;;6171969;28;85804;-58
2023/08/22 01:32:16;;;;;;;12.23;10.95;;;28.30;75.90;;;;;;6126723;28;83991;-59
2023/08/22 01:35:17;;;;;;;14.73;9.90;;;28.20;76.00;;;;;;6132523;28;82944;-59
2023/08/22 01:38:17;;;;;;;11.45;9.63;;;28.20;76.10;;;;;;6137342;28;86186;-58
2023/08/22 01:41:18;;;;;;;12.75;11.10;;;28.30;76.40;;;;;;6128172;28;82208;-56
2023/08/22 01:44:19;;;;;;;12.82;11.23;;;28.20;75.90;;;;;;6129913;28;85026;-57
2023/08/22 01:47:19;;;;;;;12.38;10.57;;;28.20;75.80;;;;;;6125523;28;84205;-63
2023/08/22 01:50:20;;;;;;;11.60;10.32;;;28.10;75.70;;;;;;6126105;28;83453;-63
2023/08/22 01:53:20;;;;;;;19.25;11.10;;;28.20;75.90;;;;;;6136566;28;84014;-63
2023/08/22 01:56:21;;;;;;;13.73;10.25;;;28.10;76.30;;;;;;6164548;28;85706;-63
2023/08/22 01:59:21;;;;;;;11.55;10.35;;;28.20;76.10;;;;;;6140495;28;83016;-63
2023/08/22 02:02:22;;;;;;;13.07;10.52;;;28.30;76.00;;;;;;6124895;28;83024;-63
2023/08/22 02:05:22;;;;;;;10.73;9.60;;;28.30;75.80;;;;;;6125038;28;83213;-59
2023/08/22 02:08:23;;;;;;;13.95;10.73;;;28.30;76.00;;;;;;6114638;28;81940;-58
2023/08/22 02:11:23;;;;;;;12.45;10.32;;;28.30;75.30;;;;;;6123659;28;84354;-57
2023/08/22 02:14:24;;;;;;;12.57;10.00;;;28.30;75.50;;;;;;6113921;28;83437;-56
2023/08/22 02:17:25;;;;;;;10.02;8.98;;;28.20;74.90;;;;;;6111738;28;84560;-58
2023/08/22 02:20:25;;;;;;;13.77;10.07;;;28.20;74.30;;;;;;6138018;28;86488;-56
2023/08/22 02:23:26;;;;;;;11.63;10.35;;;28.10;74.80;;;;;;6106269;28;83212;-62
2023/08/22 02:26:29;;;;;;;12.48;9.48;;;28.00;74.80;;;;;;6103777;28;86400;-61
2023/08/22 02:29:29;;;;;;;11.98;9.75;;;28.00;74.80;;;;;;6125144;28;84228;-62
2023/08/22 02:32:30;;;;;;;11.43;9.65;;;28.10;74.80;;;;;;6117307;28;82425;-61
2023/08/22 02:35:31;;;;;;;14.15;9.82;;;28.10;74.80;;;;;;6104972;28;80351;-61
2023/08/22 02:38:31;;;;;;;11.27;8.63;;;28.20;74.80;;;;;;6105315;28;80545;-61
2023/08/22 02:41:32;;;;;;;12.88;10.32;;;28.20;74.90;;;;;;6113753;28;82340;-58
2023/08/22 02:44:32;;;;;;;13.65;9.55;;;28.20;74.30;;;;;;6107699;28;84147;-58
2023/08/22 02:47:33;;;;;;;11.90;9.55;;;28.20;74.40;;;;;;6108777;28;83985;-58
2023/08/22 02:50:33;;;;;;;14.32;9.88;;;28.20;74.30;;;;;;6106992;28;83893;-58
2023/08/22 02:53:34;;;;;;;11.73;8.73;;;28.20;74.30;;;;;;6105513;28;80366;-58
2023/08/22 02:56:35;;;;;;;10.35;9.20;;;28.20;74.20;;;;;;6111270;28;83266;-57
2023/08/22 02:59:35;;;;;;;10.45;9.35;;;28.30;74.50;;;;;;6115287;28;82001;-57
2023/08/22 03:02:36;;;;;;;12.93;9.32;;;28.20;74.20;;;;;;6118330;28;81038;-59
2023/08/22 03:05:36;;;;;;;15.02;9.40;;;28.30;74.20;;;;;;6125703;28;83430;-60
2023/08/22 03:08:37;;;;;;;11.00;9.02;;;28.30;74.20;;;;;;6128010;28;80776;-58
2023/08/22 03:11:38;;;;;;;14.50;8.88;;;28.30;74.20;;;;;;6127523;28;83080;-58
2023/08/22 03:14:40;;;;;;;13.63;9.88;;;28.30;74.00;;;;;;6139566;28;83555;-61
2023/08/22 03:17:40;;;;;;;13.85;8.88;;;28.20;73.50;;;;;;6124740;28;80733;-59
2023/08/22 03:20:41;;;;;;;12.55;8.93;;;28.10;73.40;;;;;;6132945;28;83024;-63
2023/08/22 03:23:41;;;;;;;10.60;9.45;;;28.10;73.80;;;;;;6118061;28;83320;-64
2023/08/22 03:26:44;;;;;;;9.95;8.15;;;28.20;73.80;;;;;;6108721;28;82784;-64
2023/08/22 03:29:45;;;;;;;12.18;9.30;;;28.20;73.70;;;;;;6133619;28;86940;-63
2023/08/22 03:32:46;;;;;;;10.35;8.48;;;28.20;73.50;;;;;;6118324;28;80093;-65
2023/08/22 03:35:47;;;;;;;9.77;8.55;;;28.10;73.20;;;;;;6108013;28;81115;-63
2023/08/22 03:38:50;;;;;;;12.40;9.38;;;28.10;73.30;;;;;;6115039;28;80357;-67
2023/08/22 03:41:51;;;;;;;12.57;9.75;;;28.10;73.30;;;;;;6123817;28;83106;-65
2023/08/22 03:44:52;;;;;;;14.80;9.20;;;28.10;73.60;;;;;;6135096;28;83455;-67
2023/08/22 03:47:53;;;;;;;13.05;8.52;;;28.10;73.60;;;;;;6121345;28;80627;-65
2023/08/22 03:50:53;;;;;;;12.73;8.93;;;28.10;73.60;;;;;;6125620;28;83558;-67
2023/08/22 03:53:54;;;;;;;11.38;9.63;;;28.20;73.60;;;;;;6106819;28;81490;-66
2023/08/22 03:56:55;;;;;;;15.43;11.00;;;28.20;73.40;;;;;;6127957;28;81682;-58
2023/08/22 03:59:55;;;;;;;15.30;10.98;;;28.20;73.60;;;;;;6124723;28;83061;-59
2023/08/22 04:02:55;;;;;;;14.02;10.98;;;28.20;73.30;;;;;;6124744;28;85881;-59
2023/08/22 04:05:58;;;;;;;15.02;10.57;;;28.10;73.00;;;;;;6123241;28;85947;-60
2023/08/22 04:08:58;;;;;;;14.98;9.38;;;28.10;73.40;;;;;;6121628;28;82953;-59
2023/08/22 04:11:59;;;;;;;14.05;10.25;;;28.00;73.80;;;;;;6110956;28;86328;-57
2023/08/22 04:15:00;;;;;;;13.32;10.10;;;28.00;73.40;;;;;;6116094;28;84177;-59
2023/08/22 04:18:01;;;;;;;14.90;9.73;;;28.10;73.80;;;;;;6100126;28;88609;-59
2023/08/22 04:21:01;;;;;;;12.93;9.85;;;28.10;73.80;;;;;;6126211;28;85631;-58
2023/08/22 04:24:02;;;;;;;12.20;9.43;;;28.10;73.60;;;;;;6126795;28;83536;-60
2023/08/22 04:27:02;;;;;;;14.55;9.73;;;28.20;73.60;;;;;;6139013;28;83469;-60
2023/08/22 04:30:03;;;;;;;12.75;9.25;;;28.10;73.40;;;;;;6131978;28;80566;-60
2023/08/22 04:33:04;;;;;;;13.38;10.18;;;28.10;73.70;;;;;;6124829;28;82968;-59
2023/08/22 04:36:06;;;;;;;13.40;9.52;;;28.10;73.80;;;;;;6111501;28;84347;-58
2023/08/22 04:39:07;;;;;;;14.57;9.80;;;28.10;73.70;;;;;;6087323;28;85894;-60
2023/08/22 04:42:08;;;;;;;14.57;10.23;;;28.20;74.40;;;;;;6121209;28;85380;-60
2023/08/22 04:45:26;;;;;;;18.67;10.82;;;28.20;74.40;;;;;;6107554;28;87283;-62
2023/08/22 04:48:27;;;;;;;15.95;11.30;;;28.10;74.00;;;;;;6092349;28;86436;-62
2023/08/22 04:51:27;;;;;;;25.58;13.52;;;28.00;73.70;;;;;;6135119;28;88954;-61
2023/08/22 04:54:29;;;;;;;22.90;13.50;;;27.90;74.10;;;;;;6134423;28;85858;-62
2023/08/22 04:57:30;;;;;;;23.88;13.25;;;27.80;74.60;;;;;;6142612;28;86262;-60
2023/08/22 05:00:31;;;;;;;20.42;12.88;;;27.70;75.30;;;;;;6142252;28;86028;-61
2023/08/22 05:03:32;;;;;;;17.98;13.20;;;27.60;75.80;;;;;;6137265;28;85972;-61
2023/08/22 05:06:32;;;;;;;22.83;13.95;;;27.60;76.20;;;;;;6136837;28;84952;-60
2023/08/22 05:09:37;;;;;;;20.75;14.63;;;27.60;76.90;;;;;;6151340;28;84039;-60
2023/08/22 05:12:39;;;;;;;21.90;14.13;;;27.60;77.40;;;;;;6145984;28;86180;-59
2023/08/22 05:15:40;;;;;;;22.05;14.82;;;27.50;77.50;;;;;;6143409;28;86293;-61
2023/08/22 05:18:41;;;;;;;21.38;14.10;;;27.50;77.50;;;;;;6144985;28;84773;-59
2023/08/22 05:21:41;;;;;;;24.90;13.93;;;27.50;77.60;;;;;;6121247;28;84718;-59
2023/08/22 05:24:42;;;;;;;19.98;15.20;;;27.50;77.40;;;;;;6110409;28;86603;-61
2023/08/22 05:27:45;;;;;;;24.27;16.65;;;27.50;77.70;;;;;;6111642;28;85809;-66
2023/08/22 05:30:45;;;;;;;25.02;16.63;;;27.50;78.10;;;;;;6103478;28;86377;-69
2023/08/22 05:33:46;;;;;;;23.20;15.48;;;27.60;78.20;;;;;;6122736;28;86024;-63
2023/08/22 05:36:47;;;;;;;21.88;14.00;;;27.60;78.20;;;;;;6117135;28;84810;-69
2023/08/22 05:39:47;;;;;;;16.92;14.02;;;27.60;78.10;;;;;;6101740;28;85753;-69
2023/08/22 05:42:48;;;;;;;19.15;13.77;;;27.60;78.00;;;;;;6121529;28;83418;-69
2023/08/22 05:45:49;;;;;;;27.92;14.50;;;27.50;77.50;;;;;;6114674;28;85959;-60
2023/08/22 05:48:51;;;;;;;20.27;14.20;;;27.50;77.70;;;;;;6119375;28;86313;-57
2023/08/22 05:51:52;;;;;;;20.70;13.93;;;27.60;77.90;;;;;;6120141;28;85269;-59
2023/08/22 05:54:53;;;;;;;21.02;14.48;;;27.50;78.10;;;;;;6120712;28;83943;-58
2023/08/22 05:57:55;;;;;;;19.52;14.32;;;27.60;78.20;;;;;;6117152;28;85430;-60
2023/08/22 06:00:56;;;;;;;21.88;15.32;;;27.60;78.20;;;;;;6128439;28;86020;-60
2023/08/22 06:03:57;;;;;;;23.58;15.73;;;27.60;78.20;;;;;;6129179;28;86132;-58
2023/08/22 06:06:58;;;;;;;19.02;14.10;;;27.60;78.00;;;;;;6008191;28;83923;-60
2023/08/22 06:09:58;;;;;;;26.17;13.63;;;27.60;78.20;;;;;;6118359;28;87751;-61
2023/08/22 06:12:59;;;;;;;21.67;14.15;;;27.60;78.30;;;;;;6146630;28;85939;-58
2023/08/22 06:16:02;;;;;;;22.38;14.60;;;27.70;78.90;;;;;;6135198;28;85820;-60
2023/08/22 06:19:03;;;;;;;19.83;14.32;;;27.70;79.00;;;;;;6142530;28;86139;-58
2023/08/22 06:22:03;;;;;;;21.65;13.43;;;27.80;79.00;;;;;;6125239;28;82982;-66
2023/08/22 06:25:04;;;;;;;18.70;12.70;;;27.80;78.80;;;;;;6112100;28;84012;-65
2023/08/22 06:28:05;;;;;;;19.50;13.43;;;27.80;78.50;;;;;;6124639;28;86161;-70
2023/08/22 06:31:07;;;;;;;21.20;13.45;;;27.90;78.30;;;;;;6136917;28;85036;-66
2023/08/22 06:34:09;;;;;;;14.80;12.32;;;27.90;78.20;;;;;;6116739;28;85984;-68
2023/08/22 06:37:10;;;;;;;18.08;12.93;;;28.00;78.00;;;;;;6144690;28;85932;-66
2023/08/22 06:40:11;;;;;;;20.42;12.95;;;28.00;77.40;;;;;;6125163;28;83087;-63
2023/08/22 06:43:12;;;;;;;18.75;13.02;;;28.00;77.60;;;;;;6119181;28;83252;-66
2023/08/22 06:46:15;;;;;;;20.00;12.90;;;28.00;76.90;;;;;;6129181;28;85073;-63
2023/08/22 06:49:16;;;;;;;16.88;12.40;;;28.00;76.80;;;;;;6120249;28;86181;-66
2023/08/22 06:52:18;;;;;;;20.20;11.60;;;28.10;76.30;;;;;;6124032;28;87577;-67
2023/08/22 06:55:18;;;;;;;20.83;12.15;;;28.00;76.30;;;;;;6116200;28;83255;-66
2023/08/22 06:58:19;;;;;;;16.95;12.13;;;28.10;76.30;;;;;;6120914;28;84387;-66
2023/08/22 07:01:20;;;;;;;20.70;11.63;;;28.10;76.00;;;;;;6120282;28;84123;-60
2023/08/22 07:04:20;;;;;;;22.30;13.32;;;28.10;76.10;;;;;;6104351;28;83366;-59
2023/08/22 07:07:21;;;;;;;15.35;11.55;;;28.20;76.90;;;;;;6116658;28;83483;-59
2023/08/22 07:10:21;;;;;;;17.13;10.90;;;28.20;76.10;;;;;;6121488;28;86273;-57
2023/08/22 07:13:22;;;;;;;11.60;10.35;;;28.30;76.10;;;;;;6121097;28;83461;-61
2023/08/22 07:16:22;;;;;;;17.48;10.23;;;28.20;75.20;;;;;;6107833;28;85265;-59
2023/08/22 07:19:23;;;;;;;14.35;10.38;;;27.90;72.20;;;;;;6102398;28;83155;-64
2023/08/22 07:22:23;;;;;;;14.00;9.88;;;27.60;70.30;;;;;;6103073;28;84592;-64
2023/08/22 07:25:24;;;;;;;18.77;9.68;;;27.40;71.10;;;;;;6123029;28;82989;-64
2023/08/22 07:28:24;;;;;;;15.32;10.55;;;27.50;73.60;;;;;;6132108;28;81898;-64
2023/08/22 07:31:25;;;;;;;12.40;9.60;;;27.60;74.10;;;;;;6121794;28;83253;-65
2023/08/22 07:34:25;;;;;;;16.80;10.02;;;27.70;74.70;;;;;;6126626;28;83499;-68
2023/08/22 07:37:26;;;;;;;13.65;9.48;;;27.80;74.90;;;;;;6118076;28;82758;-65
2023/08/22 07:40:27;;;;;;;17.13;10.15;;;27.60;71.90;;;;;;6132491;28;83465;-68
2023/08/22 07:43:27;;;;;;;14.98;10.23;;;27.30;69.40;;;;;;6119456;28;83080;-65
2023/08/22 07:46:27;;;;;;;13.55;10.13;;;27.10;68.00;;;;;;6121327;28;83183;-65
2023/08/22 07:49:28;;;;;;;15.25;10.73;;;27.00;67.60;;;;;;6108794;28;83721;-66
2023/08/22 07:52:29;;;;;;;14.63;10.20;;;26.90;66.10;;;;;;6113940;28;84249;-68
2023/08/22 07:55:30;;;;;;;17.70;10.00;;;26.70;65.50;;;;;;6118539;28;83567;-67
2023/08/22 07:58:30;;;;;;;14.70;9.25;;;26.60;65.30;;;;;;6126220;28;84655;-68
2023/08/22 08:01:31;;;;;;;16.40;9.40;;;26.50;65.00;;;;;;6119505;28;83474;-67
2023/08/22 08:04:33;;;;;;;16.25;9.90;;;26.50;63.30;;;;;;6108255;28;81494;-68
2023/08/22 08:07:33;;;;;;;10.40;8.48;;;26.40;63.70;;;;;;6122482;28;80554;-67
2023/08/22 08:10:34;;;;;;;10.63;8.82;;;26.40;62.50;;;;;;6126446;28;82210;-66
2023/08/22 08:13:34;;;;;;;16.75;10.27;;;26.40;62.20;;;;;;6126099;28;80334;-58
2023/08/22 08:16:35;;;;;;;16.77;9.95;;;26.30;62.20;;;;;;6111970;28;84925;-59
2023/08/22 08:19:36;;;;;;;14.00;9.30;;;26.30;62.20;;;;;;6127113;28;83053;-59
2023/08/22 08:22:37;;;;;;;12.20;9.02;;;26.30;62.50;;;;;;6104759;28;80909;-59
2023/08/22 08:25:37;;;;;;;14.07;8.93;;;26.20;62.40;;;;;;6117278;28;80952;-61
2023/08/22 08:28:38;;;;;;;12.88;8.50;;;26.20;62.10;;;;;;6104473;28;80711;-60
2023/08/22 08:31:39;;;;;;;13.02;9.27;;;26.20;62.00;;;;;;6103852;28;81002;-61
2023/08/22 08:34:39;;;;;;;10.75;7.78;;;26.10;62.00;;;;;;6112672;28;80664;-58
2023/08/22 08:37:40;;;;;;;12.05;8.43;;;26.10;61.40;;;;;;6115063;28;81006;-59
2023/08/22 08:40:40;;;;;;;14.95;7.82;;;26.10;60.90;;;;;;6115162;28;81369;-58
2023/08/22 08:43:41;;;;;;;12.38;8.75;;;26.10;61.30;;;;;;6104360;28;80567;-59
2023/08/22 08:46:42;;;;;;;13.23;7.88;;;26.10;61.60;;;;;;6105020;28;80954;-58
2023/08/22 08:49:42;;;;;;;11.70;8.18;;;26.10;61.20;;;;;;6107521;28;80554;-70
2023/08/22 08:52:45;;;;;;;13.82;7.82;;;26.10;62.60;;;;;;6129767;28;81901;-68
2023/08/22 08:55:45;;;;;;;8.75;7.18;;;26.30;65.10;;;;;;6129312;28;81537;-70
2023/08/22 08:58:46;;;;;;;11.93;8.00;;;26.60;66.60;;;;;;6132155;28;80654;-68
2023/08/22 09:01:46;;;;;;;11.32;7.88;;;26.80;68.30;;;;;;6140357;28;81594;-70
2023/08/22 09:04:49;;;;;;;11.23;7.32;;;27.00;68.80;;;;;;6128829;28;80836;-71
2023/08/22 09:07:49;;;;;;;11.10;7.32;;;27.10;70.10;;;;;;6129575;28;83903;-62
2023/08/22 09:10:50;;;;;;;13.60;8.35;;;27.20;70.10;;;;;;6131629;28;80904;-62
2023/08/22 09:13:51;;;;;;;12.60;8.18;;;27.30;70.30;;;;;;6110113;28;80888;-62
2023/08/22 09:16:51;;;;;;;12.52;7.55;;;27.50;71.40;;;;;;6091303;28;82267;-61
2023/08/22 09:19:52;;;;;;;9.85;8.07;;;27.60;71.30;;;;;;6133213;28;81334;-62
2023/08/22 09:22:52;;;;;;;11.25;8.40;;;27.70;71.70;;;;;;6140915;28;80236;-60
2023/08/22 09:25:54;;;;;;;13.25;7.93;;;27.80;71.10;;;;;;6133398;28;82230;-65
2023/08/22 09:28:54;;;;;;;8.25;7.38;;;27.80;70.80;;;;;;6121943;28;80909;-65
2023/08/22 09:31:55;;;;;;;11.93;8.63;;;28.00;71.20;;;;;;6127266;28;80825;-66
2023/08/22 09:34:55;;;;;;;12.35;7.60;;;28.00;70.20;;;;;;6125025;28;81361;-66
2023/08/22 09:37:56;;;;;;;10.65;8.02;;;28.10;71.00;;;;;;6124034;28;80272;-68
2023/08/22 09:40:57;;;;;;;15.38;8.75;;;28.10;70.70;;;;;;6114950;28;84901;-61
2023/08/22 09:44:00;;;;;;;18.95;8.80;;;28.10;70.30;;;;;;6121928;28;81029;-60
2023/08/22 09:47:00;;;;;;;12.55;7.70;;;28.20;70.40;;;;;;6123343;28;81629;-67
2023/08/22 09:50:01;;;;;;;12.48;8.40;;;28.20;69.80;;;;;;6136971;28;80456;-63
2023/08/22 09:53:01;;;;;;;16.35;8.68;;;28.30;71.40;;;;;;6119244;28;81962;-65
2023/08/22 09:56:02;;;;;;;13.95;8.32;;;28.30;70.00;;;;;;6128159;28;80979;-61
2023/08/22 09:59:02;;;;;;;14.98;9.23;;;28.40;70.50;;;;;;6122901;28;80714;-63
2023/08/22 10:02:03;;;;;;;24.70;9.13;;;28.40;69.50;;;;;;6122145;28;81702;-63
2023/08/22 10:05:03;;;;;;;15.90;8.70;;;28.40;69.30;;;;;;6114007;28;81354;-60
2023/08/22 10:08:04;;;;;;;13.32;8.25;;;28.40;68.90;;;;;;6118658;28;80553;-61
2023/08/22 10:11:05;;;;;;;11.38;8.15;;;28.50;69.60;;;;;;6127153;28;80248;-61
2023/08/22 10:14:05;;;;;;;10.13;7.95;;;28.50;68.70;;;;;;6123432;28;81754;-59
2023/08/22 10:17:06;;;;;;;11.90;8.05;;;28.50;68.70;;;;;;6116261;28;81407;-61
2023/08/22 10:20:06;;;;;;;12.95;8.30;;;28.60;68.50;;;;;;6124316;28;80604;-60
2023/08/22 10:23:07;;;;;;;16.60;8.55;;;28.60;68.30;;;;;;6129214;28;81415;-62
2023/08/22 10:26:07;;;;;;;18.23;9.75;;;28.60;69.40;;;;;;6147822;28;80988;-61
2023/08/22 10:29:08;;;;;;;25.77;10.00;;;28.60;69.70;;;;;;6126516;28;80518;-60
2023/08/22 10:32:08;;;;;;;16.77;8.93;;;28.60;68.90;;;;;;6104231;28;84831;-60
2023/08/22 10:35:09;;;;;;;20.05;8.88;;;28.70;69.00;;;;;;6110250;28;82992;-59
2023/08/22 10:38:09;;;;;;;22.65;8.95;;;28.70;68.30;;;;;;6119065;28;80390;-60
2023/08/22 10:41:10;;;;;;;22.05;8.98;;;28.70;68.30;;;;;;6110116;28;80989;-68
2023/08/22 10:44:10;;;;;;;16.38;8.05;;;28.70;68.10;;;;;;6107936;28;80599;-68
2023/08/22 10:47:11;;;;;;;13.27;8.63;;;28.70;68.40;;;;;;6109699;28;81003;-68
2023/08/22 10:50:11;;;;;;;17.20;8.77;;;28.70;67.70;;;;;;6108065;28;81576;-67
2023/08/22 10:53:12;;;;;;;9.98;8.23;;;28.70;67.60;;;;;;6107203;28;80943;-70
2023/08/22 10:56:12;;;;;;;14.07;9.13;;;28.70;67.50;;;;;;6109461;28;80928;-70
2023/08/22 10:59:13;;;;;;;14.88;8.77;;;28.70;66.60;;;;;;6118397;28;80862;-70
2023/08/22 11:02:14;;;;;;;14.30;8.30;;;28.70;67.10;;;;;;6111461;28;82779;-68
2023/08/22 11:05:15;;;;;;;10.40;8.18;;;28.80;66.30;;;;;;6111436;28;80463;-70
2023/08/22 11:08:16;;;;;;;9.73;8.00;;;28.80;67.20;;;;;;6122753;28;81969;-70
2023/08/22 11:11:16;;;;;;;12.30;7.90;;;28.80;66.90;;;;;;6120723;28;81099;-68
2023/08/22 11:14:17;;;;;;;14.13;8.25;;;28.80;67.60;;;;;;6122021;28;80542;-66
2023/08/22 11:17:18;;;;;;;12.98;7.97;;;28.90;67.70;;;;;;6117414;28;80614;-59
2023/08/22 11:20:20;;;;;;;11.95;7.93;;;28.90;68.00;;;;;;6122958;28;81462;-58
2023/08/22 11:23:20;;;;;;;22.25;8.30;;;28.90;68.60;;;;;;6116097;28;82128;-58
2023/08/22 11:26:22;;;;;;;15.45;7.88;;;28.90;68.20;;;;;;6111943;28;80804;-58
2023/08/22 11:29:23;;;;;;;14.80;7.45;;;28.90;68.00;;;;;;6110083;28;80556;-60
2023/08/22 11:32:23;;;;;;;13.23;7.95;;;29.00;68.00;;;;;;6116067;28;81804;-59
2023/08/22 11:35:24;;;;;;;14.55;7.85;;;28.90;68.00;;;;;;6124843;28;80821;-61
2023/08/22 11:38:24;;;;;;;12.80;7.43;;;28.90;67.70;;;;;;6110887;28;80430;-59
2023/08/22 11:41:25;;;;;;;9.40;7.72;;;28.90;67.40;;;;;;6111619;28;80805;-60
2023/08/22 11:44:25;;;;;;;10.25;6.82;;;28.90;67.20;;;;;;6120222;28;80592;-59
2023/08/22 11:47:26;;;;;;;13.15;7.70;;;29.00;67.90;;;;;;6115977;28;80920;-59
2023/08/22 11:50:27;;;;;;;16.17;8.88;;;28.90;69.90;;;;;;6110149;28;80598;-59
2023/08/22 11:53:27;;;;;;;24.50;11.30;;;29.00;68.30;;;;;;6112995;28;80467;-59
2023/08/22 11:56:28;;;;;;;31.20;13.50;;;29.00;68.30;;;;;;6110330;28;83223;-59
2023/08/22 11:59:28;;;;;;;39.58;15.73;;;29.00;69.50;;;;;;6110322;28;83568;-60
2023/08/22 12:02:29;;;;;;;35.72;14.50;;;29.10;68.60;;;;;;6107479;28;83372;-59
2023/08/22 12:05:32;;;;;;;40.45;16.25;;;29.20;69.20;;;;;;6110756;28;83183;-59
2023/08/22 12:08:32;;;;;;;54.47;19.95;;;29.20;69.60;;;;;;6109166;28;83045;-61
2023/08/22 12:11:33;;;;;;;44.80;16.40;;;29.20;69.20;;;;;;6119321;28;83287;-60
2023/08/22 12:14:34;;;;;;;67.53;18.33;;;29.20;69.80;;;;;;6118522;28;87356;-60
2023/08/22 12:17:34;;;;;;;59.55;17.67;;;29.20;69.70;;;;;;6100945;28;83835;-60
2023/08/22 12:20:34;;;;;;;58.97;19.90;;;29.30;69.90;;;;;;6103234;28;83299;-61
2023/08/22 12:23:37;;;;;;;57.65;17.83;;;29.30;69.60;;;;;;6122054;28;83126;-61
2023/08/22 12:26:37;;;;;;;56.47;19.20;;;29.30;68.40;;;;;;6119508;28;83132;-59
2023/08/22 12:29:38;;;;;;;57.03;19.70;;;29.30;68.50;;;;;;6107220;28;84024;-61
2023/08/22 12:32:38;;;;;;;61.05;19.85;;;29.30;67.80;;;;;;6116768;28;83590;-61
2023/08/22 12:35:39;;;;;;;55.85;18.88;;;29.40;67.50;;;;;;6119379;28;85999;-60
2023/08/22 12:38:40;;;;;;;63.58;19.73;;;29.40;67.90;;;;;;6115492;28;82924;-59
2023/08/22 12:41:40;;;;;;;52.65;18.58;;;29.40;67.70;;;;;;6115801;28;83033;-61
2023/08/22 12:44:41;;;;;;;56.47;18.90;;;29.40;68.80;;;;;;6114604;28;83127;-62
2023/08/22 12:47:42;;;;;;;46.75;16.48;;;29.40;68.30;;;;;;6113849;28;83554;-62
2023/08/22 12:50:42;;;;;;;42.55;15.50;;;29.50;68.70;;;;;;6122371;28;83489;-58
2023/08/22 12:53:43;;;;;;;30.02;12.77;;;29.50;68.80;;;;;;6111860;28;83249;-61
2023/08/22 12:56:43;;;;;;;30.35;12.60;;;29.50;67.90;;;;;;6120992;28;83885;-59
2023/08/22 12:59:44;;;;;;;40.47;11.82;;;29.10;67.00;;;;;;6117413;28;84803;-59
2023/08/22 13:02:44;;;;;;;21.13;10.20;;;28.70;63.80;;;;;;6113016;28;83090;-59
2023/08/22 13:05:45;;;;;;;20.38;8.65;;;28.40;61.70;;;;;;6119988;28;84103;-59
2023/08/22 13:08:45;;;;;;;14.13;7.80;;;28.20;60.40;;;;;;6118694;28;82280;-56
2023/08/22 13:11:46;;;;;;;14.30;7.30;;;28.00;58.50;;;;;;6124716;28;80814;-59
2023/08/22 13:14:46;;;;;;;13.45;7.82;;;27.80;57.50;;;;;;6131818;28;80959;-59
2023/08/22 13:17:47;;;;;;;11.57;7.00;;;27.70;57.10;;;;;;6120164;28;80616;-60
2023/08/22 13:20:47;;;;;;;12.88;6.47;;;27.60;56.70;;;;;;6133281;28;81328;-61
2023/08/22 13:23:48;;;;;;;13.00;6.85;;;27.60;60.50;;;;;;6140572;28;82645;-61
2023/08/22 13:26:48;;;;;;;10.43;6.85;;;27.60;65.20;;;;;;6133533;28;80502;-60
2023/08/22 13:29:49;;;;;;;10.90;6.38;;;27.60;68.20;;;;;;6112675;28;80563;-60
2023/08/22 13:32:49;;;;;;;8.05;6.38;;;27.70;70.60;;;;;;6132073;28;80758;-62
2023/08/22 13:35:50;;;;;;;8.55;6.75;;;27.70;71.90;;;;;;6123992;28;80381;-60
2023/08/22 13:38:50;;;;;;;10.02;6.60;;;27.80;73.10;;;;;;6109674;28;80135;-59
2023/08/22 13:41:51;;;;;;;12.80;7.15;;;27.90;73.60;;;;;;6116083;28;80558;-60
2023/08/22 13:44:51;;;;;;;8.40;5.72;;;28.00;73.50;;;;;;6115809;28;83033;-60
2023/08/22 13:47:54;;;;;;;10.52;6.32;;;28.10;72.30;;;;;;6122203;28;81926;-61
2023/08/22 13:50:55;;;;;;;9.15;6.63;;;27.80;66.50;;;;;;6113351;28;80445;-61
2023/08/22 13:53:55;;;;;;;7.35;5.32;;;27.60;63.10;;;;;;6121496;28;80810;-61
2023/08/22 13:56:56;;;;;;;7.60;5.63;;;27.50;60.30;;;;;;6127922;28;85353;-63
2023/08/22 13:59:57;;;;;;;7.78;6.00;;;27.30;59.30;;;;;;6126874;28;80583;-64
2023/08/22 14:02:57;;;;;;;10.23;5.65;;;27.20;58.70;;;;;;6112030;28;80668;-66
2023/08/22 14:05:58;;;;;;;7.03;5.50;;;27.20;58.50;;;;;;6129526;28;81790;-65
2023/08/22 14:08:58;;;;;;;10.45;6.28;;;27.10;58.20;;;;;;6119469;28;80298;-61
2023/08/22 14:11:59;;;;;;;8.77;5.93;;;27.20;66.00;;;;;;6129115;28;80885;-61
2023/08/22 14:14:59;;;;;;;9.70;5.93;;;27.20;70.20;;;;;;6127952;28;81906;-64
2023/08/22 14:18:00;;;;;;;6.90;6.20;;;27.30;72.60;;;;;;6118992;28;80845;-61
2023/08/22 14:21:00;;;;;;;7.25;5.93;;;27.30;74.20;;;;;;6114395;28;81850;-61
2023/08/22 14:24:01;;;;;;;9.68;5.72;;;27.40;74.10;;;;;;6120878;28;80584;-60
2023/08/22 14:27:02;;;;;;;6.82;5.38;;;27.50;73.70;;;;;;6130424;28;81489;-59
2023/08/22 14:30:03;;;;;;;12.15;5.70;;;27.60;73.40;;;;;;6148285;28;84947;-59
2023/08/22 14:33:03;;;;;;;9.02;5.85;;;27.70;72.70;;;;;;6120397;28;80930;-63
2023/08/22 14:36:07;;;;;;;7.55;5.45;;;27.80;72.40;;;;;;6119099;28;80608;-60
2023/08/22 14:39:07;;;;;;;7.93;5.45;;;27.80;72.30;;;;;;6120899;28;85579;-58
2023/08/22 14:42:08;;;;;;;5.75;4.90;;;27.90;72.10;;;;;;6120628;28;80969;-57
2023/08/22 14:45:09;;;;;;;6.03;5.00;;;28.00;71.80;;;;;;6123665;28;82088;-57
2023/08/22 14:48:09;;;;;;;8.23;5.22;;;28.10;71.70;;;;;;6113760;28;81064;-54
2023/08/22 14:51:10;;;;;;;8.15;5.13;;;28.10;71.90;;;;;;6120475;28;81362;-55
2023/08/22 14:54:11;;;;;;;6.03;5.20;;;28.10;70.70;;;;;;6126267;28;80657;-55
2023/08/22 14:57:12;;;;;;;7.45;5.65;;;28.20;70.70;;;;;;6124420;28;81058;-55
2023/08/22 15:00:13;;;;;;;6.13;5.32;;;28.20;70.40;;;;;;6126179;28;80558;-55
2023/08/22 15:03:13;;;;;;;5.97;4.70;;;28.20;70.20;;;;;;6116909;28;81292;-52
2023/08/22 15:06:14;;;;;;;6.60;4.85;;;28.20;69.50;;;;;;6117867;28;80590;-57
2023/08/22 15:09:14;;;;;;;5.95;5.35;;;28.20;68.80;;;;;;6111489;28;80568;-58
2023/08/22 15:12:15;;;;;;;6.47;5.28;;;28.30;68.70;;;;;;6106583;28;83178;-59
2023/08/22 15:15:15;;;;;;;8.38;5.47;;;28.20;68.50;;;;;;6126133;28;80518;-58
2023/08/22 15:18:16;;;;;;;6.20;4.57;;;28.30;69.10;;;;;;6112526;28;81349;-58
2023/08/22 15:21:16;;;;;;;5.38;4.40;;;28.30;69.40;;;;;;6116355;28;85322;-59
2023/08/22 15:24:17;;;;;;;6.25;4.95;;;28.40;69.50;;;;;;6112742;28;80529;-60